Aviation Digital Data Service (ADDS)

Output produced by TAFs form (2205 UTC 19 April 2014)
found at http://www.aviationweather.gov/adds/tafs/
 
KPSF 191720Z 1918/2018 34010G22KT P6SM SCT050 
     FM200000 32005KT P6SM SKC 
     FM201500 32005KT P6SM FEW250